Time;durP1;ratioP1;P1;durP2;ratioP2;P2;SDS_P1;SDS_P2;PMS_P1;PMS_P2;Temp;Humidity;BMP_temperature;BMP_pressure;BME280_temperature;BME280_humidity;BME280_pressure;Samples;Min_cycle;Max_cycle;Signal;HPM_P1;HPM_P2
2023/04/01 00:00:29;;;;;;;1.93;1.60;;;;;;;5.67;nan;95929.28;4995543;28;20240;-63
2023/04/01 00:02:56;;;;;;;2.10;1.67;;;;;;;5.66;nan;95931.09;4968181;28;20403;-62
2023/04/01 00:05:25;;;;;;;3.40;2.17;;;;;;;5.66;nan;95944.25;4986162;28;21074;-64
2023/04/01 00:07:52;;;;;;;1.70;1.60;;;;;;;5.68;nan;95949.31;4953208;28;20314;-64
2023/04/01 00:10:20;;;;;;;1.63;1.50;;;;;;;5.62;nan;95938.53;4977781;28;20232;-62
2023/04/01 00:12:49;;;;;;;2.60;1.67;;;;;;;5.66;nan;95946.88;4957428;28;20210;-62
2023/04/01 00:15:17;;;;;;;3.00;1.90;;;;;;;5.70;nan;95953.41;4997290;28;20988;-63
2023/04/01 00:17:44;;;;;;;2.37;1.40;;;;;;;5.74;nan;95965.16;4962374;28;20224;-63
2023/04/01 00:20:14;;;;;;;2.70;1.50;;;;;;;5.77;nan;95964.78;4994711;28;20225;-63
2023/04/01 00:22:41;;;;;;;2.23;1.40;;;;;;;5.87;nan;95971.56;4955922;28;20967;-63
2023/04/01 00:25:10;;;;;;;4.10;1.50;;;;;;;5.92;nan;95980.56;4975241;28;20285;-63
2023/04/01 00:27:38;;;;;;;1.87;1.50;;;;;;;5.99;nan;95985.06;4962537;28;20214;-63
2023/04/01 00:30:08;;;;;;;2.30;1.43;;;;;;;6.00;nan;95984.06;4993461;28;20233;-63
2023/04/01 00:32:37;;;;;;;2.40;1.53;;;;;;;6.03;nan;95989.81;4973010;28;20290;-63
2023/04/01 00:35:05;;;;;;;4.20;1.50;;;;;;;6.09;nan;95998.78;4999065;28;20231;-63
2023/04/01 00:37:36;;;;;;;2.43;1.63;;;;;;;6.11;nan;95995.97;4993125;28;20213;-63
2023/04/01 00:40:06;;;;;;;3.63;2.07;;;;;;;6.09;nan;96038.25;4964739;28;20233;-63
2023/04/01 00:42:34;;;;;;;6.97;1.97;;;;;;;6.14;nan;96016.63;4982980;28;20220;-63
2023/04/01 00:45:28;;;;;;;3.87;1.60;;;;;;;6.14;nan;95992.97;4992793;28;20879;-63
2023/04/01 00:47:57;;;;;;;2.40;1.23;;;;;;;6.13;nan;95989.53;4984847;28;20313;-67
2023/04/01 00:50:25;;;;;;;1.53;1.43;;;;;;;6.16;nan;95977.81;5003273;28;20233;-64
2023/04/01 00:52:53;;;;;;;1.20;1.20;;;;;;;6.15;nan;95995.41;4986187;28;20293;-63
2023/04/01 00:55:22;;;;;;;1.70;1.40;;;;;;;6.14;nan;96003.47;4960502;28;20217;-63
2023/04/01 00:57:50;;;;;;;1.30;1.20;;;;;;;6.13;nan;96004.47;5001030;28;20245;-63
2023/04/01 01:00:18;;;;;;;2.17;1.50;;;;;;;6.11;nan;96006.47;4970265;28;20270;-62
2023/04/01 01:02:48;;;;;;;1.30;1.20;;;;;;;6.10;nan;95996.97;4969686;28;20955;-63
2023/04/01 01:05:16;;;;;;;1.60;1.50;;;;;;;6.17;nan;96026.78;4999751;28;20778;-63
2023/04/01 01:07:49;;;;;;;2.37;1.57;;;;;;;6.13;nan;96030.78;4998713;28;20206;-63
2023/04/01 01:10:19;;;;;;;2.13;1.40;;;;;;;6.08;nan;96026.09;4951194;28;20236;-63
2023/04/01 01:12:50;;;;;;;1.90;1.53;;;;;;;6.09;nan;96019.84;4991641;28;20204;-63
2023/04/01 01:15:22;;;;;;;1.40;1.30;;;;;;;6.11;nan;95996.78;4971325;28;20212;-63
2023/04/01 01:17:59;;;;;;;2.80;1.80;;;;;;;6.13;nan;95986.06;4963351;28;21312;-63
2023/04/01 01:20:48;;;;;;;2.10;1.53;;;;;;;6.11;nan;95998.59;4990174;28;20244;-63
2023/04/01 01:23:39;;;;;;;1.57;1.50;;;;;;;6.03;nan;96000.34;4999969;28;20681;-62
2023/04/01 01:26:20;;;;;;;3.93;1.70;;;;;;;6.07;nan;96009.47;4952780;28;20287;-62
2023/04/01 01:28:53;;;;;;;1.33;1.23;;;;;;;6.07;nan;96011.31;4986658;28;20205;-64
2023/04/01 01:31:26;;;;;;;1.07;1.00;;;;;;;6.04;nan;96011.66;4968979;28;20304;-63
2023/04/01 01:34:02;;;;;;;1.40;1.30;;;;;;;5.96;nan;95996.78;4977608;28;20244;-62
2023/04/01 01:36:34;;;;;;;1.97;1.40;;;;;;;5.87;nan;95985.56;5003982;28;20494;-62
2023/04/01 01:39:02;;;;;;;2.90;1.20;;;;;;;5.84;nan;96132.28;4992703;28;20205;-63
2023/04/01 01:41:31;;;;;;;2.33;1.70;;;;;;;5.89;nan;96140.50;4942463;28;20687;-62
2023/04/01 01:44:00;;;;;;;1.30;1.20;;;;;;;5.87;nan;96109.09;5005315;28;20297;-63
2023/04/01 01:46:29;;;;;;;1.97;1.20;;;;;;;5.90;nan;96068.50;4977427;28;20567;-62
2023/04/01 01:48:57;;;;;;;1.97;1.50;;;;;;;5.87;nan;96059.16;4987371;28;20217;-63
2023/04/01 01:51:25;;;;;;;2.90;1.77;;;;;;;5.90;nan;96079.03;4959721;28;20943;-62
2023/04/01 01:53:54;;;;;;;1.63;1.37;;;;;;;5.92;nan;96066.50;4997995;28;20200;-63
2023/04/01 01:56:24;;;;;;;2.73;1.40;;;;;;;5.99;nan;96071.84;4992716;28;20378;-62
2023/04/01 01:58:53;;;;;;;3.70;1.40;;;;;;;5.97;nan;96087.81;4943945;28;20512;-63
2023/04/01 02:01:25;;;;;;;1.07;1.07;;;;;;;5.97;nan;96093.06;4968630;28;20229;-62
2023/04/01 02:03:53;;;;;;;1.37;1.37;;;;;;;5.98;nan;96122.78;4977749;28;20221;-63
2023/04/01 02:06:23;;;;;;;1.00;1.00;;;;;;;5.99;nan;96098.97;4982130;28;20401;-63
2023/04/01 02:08:54;;;;;;;1.47;1.27;;;;;;;5.99;nan;96109.47;4996917;28;20666;-62
2023/04/01 02:11:27;;;;;;;1.10;1.10;;;;;;;6.00;nan;96116.38;5000562;28;20252;-61
2023/04/01 02:13:57;;;;;;;1.20;1.10;;;;;;;6.00;nan;96163.69;4944450;28;20279;-63
2023/04/01 02:16:27;;;;;;;1.33;1.23;;;;;;;5.97;nan;96164.06;4977455;28;20665;-62
2023/04/01 02:18:56;;;;;;;3.73;1.23;;;;;;;5.98;nan;96173.59;4984164;28;20205;-63
2023/04/01 02:21:25;;;;;;;1.47;1.37;;;;;;;5.99;nan;96183.09;4987786;28;20209;-63
2023/04/01 02:23:55;;;;;;;1.20;1.03;;;;;;;6.04;nan;96198.34;5003838;28;20864;-63
2023/04/01 02:26:23;;;;;;;0.97;0.87;;;;;;;6.00;nan;96255.72;4995448;28;20708;-62
2023/04/01 02:28:52;;;;;;;1.77;1.67;;;;;;;6.02;nan;96255.56;4949190;28;20214;-62
2023/04/01 02:31:20;;;;;;;1.23;1.13;;;;;;;6.01;nan;96257.41;4974383;28;21753;-63
2023/04/01 02:33:48;;;;;;;1.30;1.17;;;;;;;6.08;nan;96260.13;4995459;28;20224;-64
2023/04/01 02:36:16;;;;;;;1.60;1.50;;;;;;;6.01;nan;96269.72;4981605;28;20344;-65
2023/04/01 02:38:46;;;;;;;4.40;1.70;;;;;;;6.03;nan;96268.56;5001717;28;20235;-63
2023/04/01 02:41:15;;;;;;;6.20;1.43;;;;;;;6.01;nan;96261.81;4992026;28;20297;-62
2023/04/01 02:43:42;;;;;;;1.20;1.20;;;;;;;6.01;nan;96254.78;5009950;28;21113;-62
2023/04/01 02:46:10;;;;;;;1.33;0.90;;;;;;;6.02;nan;96251.16;4944036;28;20510;-62
2023/04/01 02:48:37;;;;;;;1.47;1.00;;;;;;;6.03;nan;96259.84;4966860;28;20213;-64
2023/04/01 02:51:06;;;;;;;0.87;0.80;;;;;;;6.01;nan;96254.78;4973444;28;20232;-64
2023/04/01 02:53:33;;;;;;;2.07;0.90;;;;;;;5.99;nan;96261.16;4997799;28;20212;-64
2023/04/01 02:56:01;;;;;;;1.83;1.00;;;;;;;6.00;nan;96258.38;4999103;28;20599;-64
2023/04/01 02:58:30;;;;;;;1.23;1.23;;;;;;;5.99;nan;96254.09;5005856;28;20213;-64
2023/04/01 03:00:57;;;;;;;1.60;1.30;;;;;;;5.96;nan;96251.81;4942717;28;20228;-63
2023/04/01 03:03:25;;;;;;;1.37;1.33;;;;;;;5.96;nan;96251.81;4969896;28;21502;-63
2023/04/01 03:05:55;;;;;;;1.87;1.07;;;;;;;5.99;nan;96248.84;4974204;28;20525;-64
2023/04/01 03:08:22;;;;;;;1.40;1.30;;;;;;;6.00;nan;96268.03;4984355;28;20495;-61
2023/04/01 03:10:50;;;;;;;1.30;1.20;;;;;;;5.93;nan;96268.75;5003233;28;20232;-64
2023/04/01 03:13:18;;;;;;;2.10;1.37;;;;;;;5.89;nan;96266.69;4999900;28;20631;-64
2023/04/01 03:15:47;;;;;;;2.07;1.20;;;;;;;5.89;nan;96259.59;4957914;28;20239;-63
2023/04/01 03:18:14;;;;;;;1.30;1.03;;;;;;;5.91;nan;96260.22;4997974;28;21156;-62
2023/04/01 03:20:42;;;;;;;1.77;0.93;;;;;;;5.91;nan;96268.13;4949367;28;20234;-63
2023/04/01 03:23:10;;;;;;;1.27;1.17;;;;;;;5.91;nan;96251.53;5002766;28;20209;-64
2023/04/01 03:25:37;;;;;;;4.33;1.43;;;;;;;5.91;nan;96227.88;5005029;28;20924;-64
2023/04/01 03:28:05;;;;;;;1.73;1.40;;;;;;;5.88;nan;96220.34;5000831;28;20205;-65
2023/04/01 03:30:33;;;;;;;3.90;1.60;;;;;;;5.87;nan;96216.91;4953652;28;20236;-65
2023/04/01 03:33:03;;;;;;;2.83;1.47;;;;;;;5.90;nan;96184.19;4972432;28;20886;-64
2023/04/01 03:35:30;;;;;;;1.40;1.40;;;;;;;5.86;nan;96188.13;4972501;28;20259;-64
2023/04/01 03:37:58;;;;;;;1.83;1.30;;;;;;;5.83;nan;96167.47;4967499;28;20273;-64
2023/04/01 03:40:26;;;;;;;1.20;1.20;;;;;;;5.83;nan;96176.19;5007414;28;21388;-64
2023/04/01 03:42:55;;;;;;;1.83;1.73;;;;;;;5.93;nan;96162.78;4991581;28;20495;-64
2023/04/01 03:45:23;;;;;;;1.23;1.10;;;;;;;5.92;nan;96124.34;4959270;28;20286;-65
2023/04/01 03:47:51;;;;;;;2.27;1.53;;;;;;;5.97;nan;96124.63;4990318;28;20251;-64
2023/04/01 03:50:20;;;;;;;3.77;1.97;;;;;;;6.01;nan;96120.66;4996393;28;21045;-64
2023/04/01 03:52:48;;;;;;;1.40;1.40;;;;;;;6.02;nan;96122.28;4946970;28;20221;-64
2023/04/01 03:55:16;;;;;;;1.80;1.50;;;;;;;5.99;nan;96111.28;4995564;28;20637;-64
2023/04/01 03:57:44;;;;;;;2.63;1.63;;;;;;;6.01;nan;96093.53;5009200;28;20212;-64
2023/04/01 04:00:12;;;;;;;1.83;1.40;;;;;;;6.01;nan;96077.75;4945578;28;20872;-64
2023/04/01 04:02:40;;;;;;;3.20;1.40;;;;;;;6.05;nan;96081.66;4992325;28;20468;-63
2023/04/01 04:05:08;;;;;;;2.07;1.37;;;;;;;6.10;nan;96062.72;4964977;28;20466;-63
2023/04/01 04:07:37;;;;;;;1.20;1.20;;;;;;;6.11;nan;96052.00;4947016;28;20221;-64
2023/04/01 04:10:05;;;;;;;1.10;1.10;;;;;;;6.17;nan;96042.56;4983058;28;20705;-64
2023/04/01 04:12:33;;;;;;;2.10;1.10;;;;;;;6.13;nan;96018.47;5014394;28;20310;-65
2023/04/01 04:15:00;;;;;;;4.10;1.83;;;;;;;6.10;nan;95976.75;4988612;28;20212;-64
2023/04/01 04:17:28;;;;;;;1.40;1.30;;;;;;;6.09;nan;95951.44;4952705;28;20314;-65
2023/04/01 04:19:56;;;;;;;1.90;1.67;;;;;;;6.09;nan;95935.69;4986582;28;21479;-63
2023/04/01 04:22:23;;;;;;;2.73;1.63;;;;;;;6.04;nan;95928.34;4974473;28;20201;-64
2023/04/01 04:24:53;;;;;;;1.97;1.40;;;;;;;6.03;nan;95918.81;4981430;28;20216;-63
2023/04/01 04:27:20;;;;;;;3.07;1.90;;;;;;;5.99;nan;95914.91;4969486;28;20252;-65
2023/04/01 04:29:48;;;;;;;2.30;1.17;;;;;;;6.00;nan;95895.50;4991192;28;20313;-64
2023/04/01 04:32:16;;;;;;;1.50;1.27;;;;;;;5.98;nan;95875.63;4949655;28;20525;-63
2023/04/01 04:34:43;;;;;;;3.33;1.77;;;;;;;5.97;nan;95860.88;4995629;28;20541;-61
2023/04/01 04:37:11;;;;;;;2.50;2.30;;;;;;;5.92;nan;95817.56;4991837;28;20209;-63
2023/04/01 04:39:38;;;;;;;1.53;1.40;;;;;;;5.99;nan;95782.63;4940922;28;20310;-63
2023/04/01 04:42:07;;;;;;;3.33;1.60;;;;;;;5.96;nan;95760.16;4975828;28;20220;-61
2023/04/01 04:44:35;;;;;;;1.27;1.27;;;;;;;5.92;nan;95741.31;4992082;28;20229;-64
2023/04/01 04:47:03;;;;;;;3.50;1.67;;;;;;;5.92;nan;95664.28;4933561;28;20291;-62
2023/04/01 04:49:30;;;;;;;2.70;1.50;;;;;;;5.95;nan;95648.13;4996951;28;20320;-64
2023/04/01 04:51:58;;;;;;;2.03;1.30;;;;;;;5.94;nan;95634.16;4986538;28;20318;-63
2023/04/01 04:54:26;;;;;;;1.40;1.30;;;;;;;5.91;nan;95605.63;4972897;28;20302;-63
2023/04/01 04:56:54;;;;;;;1.20;1.20;;;;;;;5.95;nan;95600.78;4967545;28;20224;-63
2023/04/01 04:59:23;;;;;;;1.70;1.60;;;;;;;5.86;nan;95579.09;4988515;28;20341;-64
2023/04/01 05:01:50;;;;;;;1.43;1.33;;;;;;;5.80;nan;95585.13;4991880;28;20439;-64
2023/04/01 05:04:18;;;;;;;1.00;1.00;;;;;;;5.74;nan;95535.97;4942969;28;20721;-62
2023/04/01 05:06:46;;;;;;;1.27;1.17;;;;;;;5.71;nan;95489.88;4996998;28;20210;-64
2023/04/01 05:09:14;;;;;;;1.57;1.47;;;;;;;5.71;nan;95463.59;5000230;28;20248;-64
2023/04/01 05:11:41;;;;;;;3.10;1.30;;;;;;;5.71;nan;95442.56;4949282;28;20448;-64
2023/04/01 05:14:13;;;;;;;2.00;1.50;;;;;;;5.74;nan;95412.47;5004913;28;20293;-64
2023/04/01 05:16:42;;;;;;;2.83;2.00;;;;;;;5.76;nan;95394.69;4994208;28;20227;-60
2023/04/01 05:19:10;;;;;;;3.83;1.57;;;;;;;5.77;nan;95381.31;4939500;28;20228;-64
2023/04/01 05:21:37;;;;;;;2.17;1.60;;;;;;;5.86;nan;95386.41;4993165;28;20360;-64
2023/04/01 05:24:08;;;;;;;1.93;1.83;;;;;;;5.86;nan;95353.06;4991944;28;20732;-60
2023/04/01 05:26:36;;;;;;;1.57;1.47;;;;;;;5.87;nan;95352.03;4965431;28;20736;-60
2023/04/01 05:29:04;;;;;;;1.50;1.43;;;;;;;5.78;nan;95345.34;4988601;28;20209;-63
2023/04/01 05:31:32;;;;;;;1.47;1.33;;;;;;;5.86;nan;95332.03;4993241;28;20665;-64
2023/04/01 05:34:01;;;;;;;1.73;1.50;;;;;;;5.98;nan;95327.00;4943385;28;20225;-62
2023/04/01 05:36:28;;;;;;;3.77;1.60;;;;;;;6.04;nan;95318.31;5001265;28;20217;-64
2023/04/01 05:38:56;;;;;;;2.20;1.77;;;;;;;6.10;nan;95311.47;4991004;28;20541;-65
2023/04/01 05:41:24;;;;;;;2.63;1.70;;;;;;;6.10;nan;95294.88;4968130;28;20466;-64
2023/04/01 05:43:51;;;;;;;2.53;1.87;;;;;;;6.06;nan;95266.34;4979326;28;20499;-60
2023/04/01 05:46:19;;;;;;;2.23;1.90;;;;;;;6.03;nan;95226.50;4953844;28;20218;-65
2023/04/01 05:48:47;;;;;;;5.47;1.73;;;;;;;5.91;nan;95223.66;4995065;28;20232;-63
2023/04/01 05:51:16;;;;;;;1.57;1.47;;;;;;;5.87;nan;95230.31;4939350;28;20229;-65
2023/04/01 05:53:44;;;;;;;1.70;1.60;;;;;;;5.89;nan;95215.19;5005011;28;20384;-62
2023/04/01 05:56:11;;;;;;;1.10;1.10;;;;;;;6.27;nan;95217.19;4966456;28;20294;-65
2023/04/01 05:58:39;;;;;;;2.97;1.77;;;;;;;6.35;nan;95198.56;4976982;28;22387;-65
2023/04/01 06:01:09;;;;;;;2.43;1.67;;;;;;;6.45;nan;95213.91;4981964;28;20955;-65
2023/04/01 06:03:42;;;;;;;1.83;1.20;;;;;;;6.55;nan;95202.16;4989464;28;20226;-63
2023/04/01 06:06:15;;;;;;;1.77;1.43;;;;;;;6.54;nan;95200.53;4945705;28;20225;-64
2023/04/01 06:08:43;;;;;;;1.65;1.55;;;;;;;6.59;nan;95190.97;5013578;28;20473;-65
2023/04/01 06:11:22;;;;;;;1.67;1.52;;;;;;;6.57;nan;95185.13;4993605;28;20539;-65
2023/04/01 06:14:00;;;;;;;1.43;1.43;;;;;;;6.65;nan;95202.50;4988858;28;20279;-63
2023/04/01 06:16:32;;;;;;;1.67;1.57;;;;;;;6.71;nan;95225.34;4988719;28;20212;-61
2023/04/01 06:19:14;;;;;;;1.47;1.43;;;;;;;6.71;nan;95243.00;4975875;28;20669;-62
2023/04/01 06:22:13;;;;;;;2.20;2.00;;;;;;;6.77;nan;95232.41;4956925;28;20547;-63
2023/04/01 06:24:50;;;;;;;2.53;1.80;;;;;;;6.82;nan;95223.91;5000869;28;20514;-62
2023/04/01 06:27:37;;;;;;;2.33;1.53;;;;;;;6.82;nan;95231.81;4961176;28;20432;-63
2023/04/01 06:30:12;;;;;;;1.43;1.43;;;;;;;6.88;nan;95233.59;4976947;28;20229;-62
2023/04/01 06:32:55;;;;;;;1.70;1.00;;;;;;;6.90;nan;95241.31;4996325;28;20445;-63
2023/04/01 06:35:32;;;;;;;1.10;1.00;;;;;;;7.04;nan;95253.38;4999946;28;20227;-63
2023/04/01 06:38:16;;;;;;;0.80;0.80;;;;;;;7.13;nan;95280.31;4954840;28;20402;-63
2023/04/01 06:40:58;;;;;;;1.17;1.13;;;;;;;7.18;nan;95262.03;5019413;28;20291;-63
2023/04/01 06:43:34;;;;;;;1.23;1.17;;;;;;;7.18;nan;95267.31;4971090;28;20213;-62
2023/04/01 06:46:07;;;;;;;0.80;0.80;;;;;;;7.19;nan;95261.03;4968768;28;20875;-62
2023/04/01 06:48:50;;;;;;;1.00;1.00;;;;;;;7.24;nan;95303.34;5012217;28;20405;-62
2023/04/01 06:51:25;;;;;;;1.03;1.00;;;;;;;7.46;nan;95421.63;4951217;28;20260;-66
2023/04/01 06:53:57;;;;;;;1.00;1.00;;;;;;;7.46;nan;95415.53;4986578;28;20233;-63
2023/04/01 06:56:27;;;;;;;0.87;0.87;;;;;;;7.45;nan;95412.13;5010822;28;20217;-63
2023/04/01 06:58:58;;;;;;;0.60;0.60;;;;;;;7.55;nan;95410.84;4968840;28;20216;-64
2023/04/01 07:01:30;;;;;;;0.90;0.90;;;;;;;7.63;nan;95416.72;4969677;28;20225;-62
2023/04/01 07:04:01;;;;;;;1.90;1.20;;;;;;;7.71;nan;95420.91;4993509;28;20197;-63
2023/04/01 07:06:32;;;;;;;0.93;0.80;;;;;;;7.59;nan;95422.59;4981903;28;20501;-62
2023/04/01 07:09:05;;;;;;;7.47;6.20;;;;;;;7.61;nan;95408.22;4937177;28;20543;-63
2023/04/01 07:11:35;;;;;;;2.80;2.43;;;;;;;7.64;nan;95413.06;4999052;28;20438;-62
2023/04/01 07:14:05;;;;;;;1.83;1.73;;;;;;;7.75;nan;95401.03;4960009;28;20310;-62
2023/04/01 07:16:35;;;;;;;1.83;1.20;;;;;;;7.86;nan;95391.66;4966289;28;20417;-61
2023/04/01 07:19:07;;;;;;;1.77;0.93;;;;;;;7.92;nan;95401.34;4992971;28;20778;-58
2023/04/01 07:21:37;;;;;;;0.77;0.77;;;;;;;8.04;nan;95398.84;4993408;28;20217;-63
2023/04/01 07:24:10;;;;;;;1.07;1.07;;;;;;;8.07;nan;95374.69;4943281;28;20241;-62
2023/04/01 07:26:37;;;;;;;0.90;0.90;;;;;;;8.13;nan;95378.31;4993846;28;20221;-63
2023/04/01 07:29:06;;;;;;;1.00;0.90;;;;;;;8.20;nan;95380.94;4974521;28;20286;-62
2023/04/01 07:32:09;;;;;;;1.20;0.90;;;;;;;8.15;nan;95394.75;4995452;28;20451;-59
2023/04/01 07:34:41;;;;;;;0.70;0.70;;;;;;;8.17;nan;95394.53;4965133;28;20237;-62
2023/04/01 07:37:11;;;;;;;1.23;0.80;;;;;;;8.45;nan;95394.13;4997646;28;20209;-63
2023/04/01 07:39:44;;;;;;;0.90;0.90;;;;;;;8.56;nan;95391.84;4940221;28;20503;-62
2023/04/01 07:42:17;;;;;;;1.90;0.97;;;;;;;8.50;nan;95385.59;5009422;28;20232;-63
2023/04/01 07:44:52;;;;;;;0.77;0.70;;;;;;;8.45;nan;95390.69;4962494;28;20490;-64
2023/04/01 07:47:40;;;;;;;0.63;0.60;;;;;;;8.38;nan;95388.91;4990274;28;20231;-63
2023/04/01 07:50:14;;;;;;;1.80;0.90;;;;;;;8.50;nan;95380.31;4973904;28;20453;-61
2023/04/01 07:52:46;;;;;;;1.03;0.80;;;;;;;8.56;nan;95408.50;4996782;28;21095;-63
2023/04/01 07:55:18;;;;;;;0.63;0.63;;;;;;;8.69;nan;95402.28;4952063;28;20213;-63
2023/04/01 07:57:50;;;;;;;5.70;4.90;;;;;;;9.05;nan;95398.13;5004446;28;20480;-62
2023/04/01 08:00:21;;;;;;;1.77;1.00;;;;;;;9.21;nan;95411.81;4953419;28;20784;-61
2023/04/01 08:03:01;;;;;;;0.70;0.70;;;;;;;9.20;nan;95400.41;4992667;28;20733;-62
2023/04/01 08:05:32;;;;;;;0.93;0.83;;;;;;;9.23;nan;95384.13;4973598;28;20715;-63
2023/04/01 08:08:08;;;;;;;0.70;0.63;;;;;;;9.23;nan;95370.13;4991105;28;20218;-62
2023/04/01 08:10:45;;;;;;;0.83;0.83;;;;;;;9.43;nan;95343.44;4939004;28;20331;-62
2023/04/01 08:13:21;;;;;;;0.90;0.90;;;;;;;9.89;nan;95329.84;4993796;28;20759;-63
2023/04/01 08:15:54;;;;;;;2.13;1.30;;;;;;;10.26;nan;95338.47;4954240;28;20208;-63
2023/04/01 08:18:31;;;;;;;1.70;1.60;;;;;;;10.54;nan;95299.16;4979092;28;20217;-63
2023/04/01 08:20:59;;;;;;;0.70;0.63;;;;;;;10.51;nan;95287.16;4970565;28;20233;-63
2023/04/01 08:23:29;;;;;;;2.33;0.87;;;;;;;10.48;nan;95266.44;4993092;28;20254;-62
2023/04/01 08:26:03;;;;;;;3.37;2.00;;;;;;;10.55;nan;95264.50;4941647;28;20216;-62
2023/04/01 08:28:33;;;;;;;1.23;1.13;;;;;;;10.44;nan;95235.38;4972867;28;20270;-61
2023/04/01 08:31:04;;;;;;;0.87;0.87;;;;;;;10.31;nan;95239.84;4987915;28;20228;-63
2023/04/01 08:33:33;;;;;;;0.80;0.80;;;;;;;10.40;nan;95216.50;4965399;28;20853;-62
2023/04/01 08:36:06;;;;;;;0.80;0.80;;;;;;;10.64;nan;95216.50;4976889;28;20285;-63
2023/04/01 08:38:38;;;;;;;0.80;0.80;;;;;;;10.97;nan;95205.25;4988440;28;20240;-63
2023/04/01 08:41:44;;;;;;;1.07;1.07;;;;;;;11.27;nan;95200.75;4957528;28;20282;-63
2023/04/01 08:44:25;;;;;;;1.13;1.03;;;;;;;11.34;nan;95197.97;4991202;28;20594;-63
2023/04/01 08:47:20;;;;;;;0.80;0.80;;;;;;;11.37;nan;95186.88;4978410;28;21063;-63
2023/04/01 08:50:13;;;;;;;0.90;0.80;;;;;;;11.11;nan;95277.34;4989016;28;20804;-63
2023/04/01 08:52:44;;;;;;;2.40;1.00;;;;;;;10.60;nan;95297.41;4992560;28;20239;-63
2023/04/01 08:55:24;;;;;;;0.80;0.80;;;;;;;10.62;nan;95304.09;4994604;28;20221;-63
2023/04/01 08:58:06;;;;;;;1.10;0.93;;;;;;;10.59;nan;95301.91;4943098;28;20420;-63
2023/04/01 09:00:39;;;;;;;0.70;0.70;;;;;;;10.52;nan;95298.59;5001420;28;20538;-63
2023/04/01 09:03:27;;;;;;;1.10;0.83;;;;;;;10.74;nan;95303.28;4982746;28;20205;-63
2023/04/01 09:06:09;;;;;;;0.87;0.80;;;;;;;10.46;nan;95300.28;4994230;28;20465;-63
2023/04/01 09:08:48;;;;;;;0.87;0.87;;;;;;;10.38;nan;95322.59;4987142;28;20301;-62
2023/04/01 09:11:26;;;;;;;1.73;1.13;;;;;;;10.35;nan;95316.97;4994930;28;20217;-62
2023/04/01 09:14:32;;;;;;;1.50;0.60;;;;;;;10.46;nan;95332.06;4940848;28;20797;-63
2023/04/01 09:17:31;;;;;;;0.70;0.70;;;;;;;10.48;nan;95303.53;5015641;28;20212;-64
2023/04/01 09:20:08;;;;;;;0.90;0.90;;;;;;;10.66;nan;95304.47;4995049;28;20237;-63
2023/04/01 09:22:51;;;;;;;0.77;0.77;;;;;;;10.46;nan;95328.63;4990224;28;20217;-64
2023/04/01 09:25:42;;;;;;;1.00;0.83;;;;;;;10.36;nan;94893.19;5006313;28;20595;-64
2023/04/01 09:28:15;;;;;;;0.87;0.87;;;;;;;10.13;nan;94746.75;4981718;28;20287;-63
2023/04/01 09:31:09;;;;;;;0.80;0.70;;;;;;;10.06;nan;94266.47;4984842;28;20620;-64
2023/04/01 09:34:02;;;;;;;1.67;1.57;;;;;;;9.97;nan;93779.50;4968189;28;20232;-63
2023/04/01 09:36:40;;;;;;;0.73;0.73;;;;;;;9.80;nan;93738.25;4990667;28;20338;-64
2023/04/01 09:39:33;;;;;;;0.80;0.80;;;;;;;9.95;nan;93711.03;4999375;28;20313;-64
2023/04/01 09:42:24;;;;;;;1.80;1.00;;;;;;;9.87;nan;93700.19;5006434;28;20532;-64
2023/04/01 09:44:59;;;;;;;2.10;0.90;;;;;;;9.87;nan;93673.72;4947632;28;20225;-64
2023/04/01 09:47:49;;;;;;;1.07;0.97;;;;;;;9.97;nan;93612.91;4994456;28;20589;-63
2023/04/01 09:50:44;;;;;;;0.83;0.80;;;;;;;10.04;nan;94499.53;4980873;28;21079;-64
2023/04/01 09:53:21;;;;;;;0.70;0.70;;;;;;;10.04;nan;94467.78;4995894;28;20213;-64
2023/04/01 09:56:22;;;;;;;1.00;1.00;;;;;;;10.05;nan;94428.88;4992850;28;20232;-64
2023/04/01 09:59:20;;;;;;;2.20;1.17;;;;;;;10.19;nan;94427.44;4956424;28;20278;-64
2023/04/01 10:02:12;;;;;;;2.80;0.93;;;;;;;10.57;nan;94406.38;5005449;28;20679;-64
2023/04/01 10:05:21;;;;;;;1.27;1.17;;;;;;;10.92;nan;94405.06;4978183;28;21798;-64
2023/04/01 10:08:22;;;;;;;1.60;1.10;;;;;;;10.81;nan;94432.53;4990384;28;20213;-65
2023/04/01 10:11:16;;;;;;;2.60;1.00;;;;;;;10.55;nan;94639.59;5003081;28;20770;-64
2023/04/01 10:14:08;;;;;;;0.87;0.87;;;;;;;10.02;nan;94729.09;5002113;28;20201;-64
2023/04/01 10:17:01;;;;;;;0.93;0.70;;;;;;;9.83;nan;94752.31;4957457;28;20436;-65
2023/04/01 10:20:02;;;;;;;0.93;0.90;;;;;;;9.74;nan;94786.31;5000170;28;20225;-65
2023/04/01 10:22:45;;;;;;;0.70;0.70;;;;;;;9.70;nan;94817.69;4972493;28;20428;-66
2023/04/01 10:25:20;;;;;;;1.17;0.70;;;;;;;9.83;nan;95234.50;5006729;28;20250;-65
2023/04/01 10:27:59;;;;;;;1.03;0.60;;;;;;;9.82;nan;95243.47;4999561;28;20201;-66
2023/04/01 10:30:52;;;;;;;1.20;0.63;;;;;;;9.78;nan;95247.59;4934017;28;20415;-65
2023/04/01 10:33:46;;;;;;;0.60;0.60;;;;;;;9.94;nan;95251.44;4999284;28;20266;-66
2023/04/01 10:36:36;;;;;;;0.80;0.80;;;;;;;10.01;nan;95261.09;4985192;28;20225;-65
2023/04/01 10:39:32;;;;;;;0.90;0.90;;;;;;;10.21;nan;95260.78;5014331;28;20239;-65
2023/04/01 10:42:21;;;;;;;0.50;0.50;;;;;;;10.42;nan;95251.50;4997777;28;20205;-65
2023/04/01 10:45:25;;;;;;;1.27;1.10;;;;;;;10.53;nan;95263.13;4999211;28;20551;-65
2023/04/01 10:48:14;;;;;;;0.87;0.87;;;;;;;10.84;nan;95274.38;5003297;28;20636;-64
2023/04/01 10:51:03;;;;;;;0.60;0.60;;;;;;;10.91;nan;95283.00;4991994;28;20442;-64
2023/04/01 10:53:40;;;;;;;0.77;0.77;;;;;;;10.67;nan;95301.56;4960869;28;20360;-64
2023/04/01 10:56:28;;;;;;;0.70;0.70;;;;;;;10.92;nan;95311.13;5000212;28;20490;-63
2023/04/01 10:59:25;;;;;;;2.17;1.00;;;;;;;10.83;nan;95329.22;5015542;28;20213;-63
2023/04/01 11:02:27;;;;;;;0.77;0.77;;;;;;;10.90;nan;95339.69;4940473;28;20285;-65
2023/04/01 11:05:25;;;;;;;1.00;1.00;;;;;;;11.13;nan;95346.00;5000983;28;20205;-64
2023/04/01 11:08:25;;;;;;;0.80;0.80;;;;;;;11.25;nan;95356.59;4966281;28;20320;-63
2023/04/01 11:11:26;;;;;;;0.63;0.63;;;;;;;11.00;nan;95387.59;4998665;28;20528;-64
2023/04/01 11:14:27;;;;;;;0.87;0.87;;;;;;;11.28;nan;95401.19;5004498;28;20401;-66
2023/04/01 11:17:31;;;;;;;0.80;0.80;;;;;;;11.46;nan;95408.19;4994570;28;20234;-65
2023/04/01 11:20:48;;;;;;;2.20;2.10;;;;;;;11.46;nan;95437.38;5000890;28;20222;-63
2023/04/01 11:23:51;;;;;;;1.33;0.83;;;;;;;11.03;nan;95481.75;4971548;28;20209;-64
2023/04/01 11:26:42;;;;;;;0.63;0.57;;;;;;;10.84;nan;95492.44;5009159;28;20201;-64
2023/04/01 11:29:23;;;;;;;1.00;0.97;;;;;;;10.76;nan;95506.00;5004918;28;20620;-64
2023/04/01 11:31:56;;;;;;;0.50;0.50;;;;;;;10.58;nan;95520.09;5002901;28;20270;-65
2023/04/01 11:34:37;;;;;;;0.57;0.57;;;;;;;10.41;nan;95525.22;4940310;28;20274;-64
2023/04/01 11:37:15;;;;;;;0.60;0.60;;;;;;;10.43;nan;95544.34;4994510;28;20690;-63
2023/04/01 11:40:00;;;;;;;2.37;0.83;;;;;;;10.33;nan;95544.03;4980859;28;20233;-64
2023/04/01 11:42:35;;;;;;;0.87;0.60;;;;;;;10.28;nan;95549.97;4995066;28;20813;-64
2023/04/01 11:45:16;;;;;;;0.67;0.67;;;;;;;10.17;nan;95561.31;4994490;28;20217;-63
2023/04/01 11:48:01;;;;;;;0.57;0.57;;;;;;;10.00;nan;95556.59;5012370;28;20368;-63
2023/04/01 11:50:38;;;;;;;0.97;0.60;;;;;;;9.74;nan;95579.66;4946655;28;20232;-62
2023/04/01 11:53:14;;;;;;;1.60;0.60;;;;;;;9.65;nan;95571.19;4995840;28;20201;-62
2023/04/01 11:55:51;;;;;;;0.80;0.80;;;;;;;9.83;nan;95575.72;4983209;28;20229;-63
2023/04/01 11:58:28;;;;;;;0.97;0.97;;;;;;;9.96;nan;95587.19;4988422;28;20277;-62
2023/04/01 12:01:10;;;;;;;1.30;0.70;;;;;;;10.52;nan;95587.22;4998090;28;20241;-62
2023/04/01 12:04:11;;;;;;;1.20;0.80;;;;;;;11.09;nan;95601.94;4997649;28;20422;-62
2023/04/01 12:06:45;;;;;;;0.53;0.53;;;;;;;10.73;nan;95601.00;4990566;28;20564;-63
2023/04/01 12:09:19;;;;;;;3.33;3.10;;;;;;;10.81;nan;95606.00;4973135;28;20779;-63
2023/04/01 12:11:53;;;;;;;1.03;0.80;;;;;;;11.00;nan;95606.78;4991654;28;20206;-63
2023/04/01 12:14:25;;;;;;;0.50;0.50;;;;;;;11.38;nan;95607.44;4998926;28;20674;-63
2023/04/01 12:16:59;;;;;;;0.60;0.60;;;;;;;11.40;nan;95603.53;5004596;28;20470;-62
2023/04/01 12:19:36;;;;;;;0.50;0.50;;;;;;;11.34;nan;95608.94;4982376;28;20572;-62
2023/04/01 12:22:25;;;;;;;0.77;0.57;;;;;;;11.18;nan;95610.38;4954512;28;20220;-63
2023/04/01 12:25:04;;;;;;;0.80;0.80;;;;;;;10.46;nan;95623.31;4973787;28;20654;-62
2023/04/01 12:27:40;;;;;;;0.50;0.50;;;;;;;10.22;nan;95625.78;4995512;28;20535;-63
2023/04/01 12:30:19;;;;;;;1.60;1.50;;;;;;;10.18;nan;95629.09;4991333;28;20709;-65
2023/04/01 12:32:52;;;;;;;0.80;0.73;;;;;;;9.67;nan;95622.03;5001088;28;20627;-64
2023/04/01 12:35:25;;;;;;;0.90;0.90;;;;;;;9.43;nan;95626.31;4984498;28;20228;-65